createdAt,value
2019-06-15T00:01:42.437Z,4.57
2019-06-15T00:04:14.106Z,7.70
2019-06-15T00:06:44.418Z,5.50
2019-06-15T00:09:14.761Z,5.77
2019-06-15T00:11:45.473Z,6.37
2019-06-15T00:14:16.984Z,5.97
2019-06-15T00:16:47.318Z,8.20
2019-06-15T00:19:18.192Z,7.23
2019-06-15T00:21:48.853Z,8.37
2019-06-15T00:24:19.189Z,6.57
2019-06-15T00:26:49.926Z,7.27
2019-06-15T00:29:20.724Z,5.97
2019-06-15T00:31:51.605Z,5.43
2019-06-15T00:34:21.934Z,5.30
2019-06-15T00:36:52.562Z,6.27
2019-06-15T00:39:22.979Z,5.93
2019-06-15T00:42:12.430Z,5.90
2019-06-15T00:44:42.807Z,9.23
2019-06-15T00:47:13.190Z,8.27
2019-06-15T00:49:43.819Z,7.30
2019-06-15T00:52:14.164Z,9.70
2019-06-15T00:54:50.393Z,10.00
2019-06-15T00:57:16.655Z,8.63
2019-06-15T00:59:47.078Z,8.73
2019-06-15T01:02:17.439Z,10.47
2019-06-15T01:04:48.093Z,9.80
2019-06-15T01:07:18.445Z,10.80
2019-06-15T01:09:49.074Z,11.83
2019-06-15T01:12:19.457Z,13.53
2019-06-15T01:14:49.830Z,14.63
2019-06-15T01:17:20.644Z,16.97
2019-06-15T01:19:51.032Z,13.70
2019-06-15T01:22:21.675Z,14.60
2019-06-15T01:25:04.936Z,12.27
2019-06-15T01:27:24.222Z,15.47
2019-06-15T01:29:54.972Z,12.83
2019-06-15T01:32:25.583Z,14.20
2019-06-15T01:34:55.925Z,13.87
2019-06-15T01:37:26.545Z,13.03
2019-06-15T01:39:57.175Z,11.60
2019-06-15T01:42:27.826Z,12.93
2019-06-15T01:44:58.173Z,12.17
2019-06-15T01:47:28.502Z,11.53
2019-06-15T01:49:58.817Z,11.03
2019-06-15T01:52:29.184Z,11.27
2019-06-15T01:54:59.848Z,10.47
2019-06-15T01:57:30.198Z,12.03
2019-06-15T02:00:00.994Z,13.67
2019-06-15T02:02:31.866Z,13.37
2019-06-15T02:05:02.192Z,14.00
2019-06-15T02:07:33.844Z,16.57
2019-06-15T02:10:04.723Z,12.77
2019-06-15T02:12:46.144Z,12.77
2019-06-15T02:15:17.207Z,11.23
2019-06-15T02:17:47.588Z,12.80
2019-06-15T02:20:18.528Z,9.90
2019-06-15T02:22:49.406Z,10.40
2019-06-15T02:25:35.205Z,13.07
2019-06-15T02:27:57.720Z,11.33
2019-06-15T02:30:30.521Z,11.13
2019-06-15T02:33:01.057Z,10.07
2019-06-15T02:35:31.631Z,10.43
2019-06-15T02:38:01.980Z,9.80
2019-06-15T02:40:32.337Z,12.30
2019-06-15T02:43:02.720Z,11.23
2019-06-15T02:45:33.079Z,12.43
2019-06-15T02:48:03.462Z,10.30
2019-06-15T02:50:33.904Z,11.67
2019-06-15T02:53:04.294Z,10.97
2019-06-15T02:55:34.629Z,10.83
2019-06-15T02:58:04.971Z,10.70
2019-06-15T03:00:51.201Z,10.10
2019-06-15T03:03:21.562Z,10.73
2019-06-15T03:05:52.530Z,8.53
2019-06-15T03:08:23.321Z,9.07
2019-06-15T03:10:54.117Z,8.23
2019-06-15T03:13:24.464Z,8.40
2019-06-15T03:15:54.804Z,8.50
2019-06-15T03:18:25.407Z,8.30
2019-06-15T03:20:55.714Z,7.40
2019-06-15T03:23:26.192Z,7.77
2019-06-15T03:26:05.125Z,8.50
2019-06-15T03:28:29.245Z,8.47
2019-06-15T03:30:59.760Z,7.87
2019-06-15T03:33:30.078Z,7.50
2019-06-15T03:36:00.424Z,7.67
2019-06-15T03:38:31.082Z,9.23
2019-06-15T03:41:01.451Z,9.73
2019-06-15T03:43:31.784Z,7.93
2019-06-15T03:46:02.164Z,10.30
2019-06-15T03:48:32.513Z,9.67
2019-06-15T03:51:03.211Z,11.47
2019-06-15T03:53:34.257Z,8.87
2019-06-15T03:56:04.635Z,8.33
2019-06-15T03:58:36.101Z,8.20
2019-06-15T04:01:17.163Z,8.63
2019-06-15T04:03:47.805Z,8.27
2019-06-15T04:06:18.144Z,7.07
2019-06-15T04:08:48.578Z,7.60
2019-06-15T04:11:18.928Z,8.60
2019-06-15T04:13:49.301Z,7.93
2019-06-15T04:16:19.621Z,9.03
2019-06-15T04:18:50.612Z,8.37
2019-06-15T04:21:20.977Z,9.23
2019-06-15T04:23:51.650Z,8.70
2019-06-15T04:26:35.344Z,9.03
2019-06-15T04:28:54.286Z,8.70
2019-06-15T04:31:25.923Z,9.20
2019-06-15T04:33:56.736Z,10.77
2019-06-15T04:36:27.528Z,9.77
2019-06-15T04:38:57.864Z,9.60
2019-06-15T04:41:28.247Z,11.53
2019-06-15T04:43:59.180Z,14.73
2019-06-15T04:46:32.095Z,14.87
2019-06-15T04:49:02.262Z,17.70
2019-06-15T04:51:32.650Z,17.53
2019-06-15T04:54:02.999Z,21.13
2019-06-15T04:56:33.354Z,21.70
2019-06-15T04:59:03.694Z,22.30
2019-06-15T05:01:34.436Z,25.80
2019-06-15T05:04:04.847Z,24.50
2019-06-15T05:06:38.629Z,24.97
2019-06-15T05:09:09.495Z,28.80
2019-06-15T05:11:39.925Z,28.03
2019-06-15T05:14:10.367Z,27.57
2019-06-15T05:16:59.974Z,26.00
2019-06-15T05:19:30.650Z,25.27
2019-06-15T05:22:01.017Z,21.43
2019-06-15T05:24:31.649Z,22.00
2019-06-15T05:27:06.235Z,21.67
2019-06-15T05:29:35.957Z,22.33
2019-06-15T05:32:06.323Z,21.03
2019-06-15T05:34:36.707Z,19.63
2019-06-15T05:37:07.080Z,19.67
2019-06-15T05:39:37.501Z,20.20
2019-06-15T05:42:07.886Z,21.53
2019-06-15T05:44:38.551Z,19.83
2019-06-15T05:47:08.947Z,20.60
2019-06-15T05:49:39.302Z,19.27
2019-06-15T05:52:10.041Z,20.33
2019-06-15T05:54:40.408Z,20.23
2019-06-15T05:57:21.314Z,18.73
2019-06-15T05:59:42.868Z,18.17
2019-06-15T06:02:13.217Z,19.50
2019-06-15T06:04:43.597Z,19.47
2019-06-15T06:07:14.199Z,17.63
2019-06-15T06:09:44.659Z,18.67
2019-06-15T06:12:15.128Z,16.67
2019-06-15T06:14:45.499Z,16.60
2019-06-15T06:17:15.857Z,15.60
2019-06-15T06:19:46.524Z,16.93
2019-06-15T06:22:16.983Z,14.67
2019-06-15T06:24:47.648Z,17.63
2019-06-15T06:27:18.075Z,16.37
2019-06-15T06:29:49.938Z,17.50
2019-06-15T06:32:20.345Z,17.03
2019-06-15T06:34:51.011Z,16.70
2019-06-15T06:37:21.398Z,18.90
2019-06-15T06:39:52.065Z,18.07
2019-06-15T06:42:22.427Z,17.30
2019-06-15T06:44:53.044Z,19.73
2019-06-15T06:47:23.413Z,17.37
2019-06-15T06:49:54.146Z,16.30
2019-06-15T06:52:24.623Z,17.53
2019-06-15T06:54:54.972Z,17.33
2019-06-15T06:57:25.656Z,17.97
2019-06-15T06:59:56.052Z,17.17
2019-06-15T07:02:27.042Z,17.27
2019-06-15T07:04:57.861Z,16.47
2019-06-15T07:07:28.220Z,16.47
2019-06-15T07:09:59.641Z,16.87
2019-06-15T07:12:30.026Z,16.57
2019-06-15T07:15:00.545Z,17.30
2019-06-15T07:17:31.528Z,16.57
2019-06-15T07:20:02.601Z,15.67
2019-06-15T07:22:33.036Z,15.30
2019-06-15T07:25:04.071Z,15.47
2019-06-15T07:27:34.611Z,15.23
2019-06-15T07:30:05.630Z,14.80
2019-06-15T07:32:36.095Z,13.80
2019-06-15T07:35:07.050Z,14.17
2019-06-15T07:37:37.582Z,14.20
2019-06-15T07:40:09.060Z,13.43
2019-06-15T07:42:39.800Z,12.70
2019-06-15T07:45:11.488Z,12.83
2019-06-15T07:47:41.884Z,13.17
2019-06-15T07:50:13.526Z,12.87
2019-06-15T07:52:43.875Z,13.07
2019-06-15T07:55:14.407Z,12.80
2019-06-15T07:57:44.763Z,13.70
2019-06-15T08:00:17.276Z,12.97
2019-06-15T08:02:47.656Z,12.93
2019-06-15T08:05:19.709Z,14.97
2019-06-15T08:08:11.844Z,17.20
2019-06-15T08:10:43.296Z,21.03
2019-06-15T08:13:14.683Z,21.10
2019-06-15T08:15:45.841Z,22.63
2019-06-15T08:18:18.123Z,25.47
2019-06-15T08:20:49.589Z,28.80
2019-06-15T08:23:29.371Z,26.47
2019-06-15T08:26:21.705Z,27.03
2019-06-15T08:28:52.045Z,27.13
2019-06-15T08:31:22.436Z,26.87
2019-06-15T08:33:52.889Z,26.30
2019-06-15T08:36:23.312Z,25.53
2019-06-15T08:38:53.676Z,26.63
2019-06-15T08:41:24.120Z,23.53
2019-06-15T08:43:54.484Z,25.13
2019-06-15T08:46:24.909Z,23.47
2019-06-15T08:48:55.654Z,21.07
2019-06-15T08:51:26.261Z,20.40
2019-06-15T08:53:56.631Z,19.60
2019-06-15T08:56:26.968Z,18.90
2019-06-15T08:58:57.339Z,17.30
2019-06-15T09:01:27.673Z,16.07
2019-06-15T09:03:58.719Z,13.17
2019-06-15T09:06:29.052Z,12.03
2019-06-15T09:08:59.434Z,11.07
2019-06-15T09:11:30.003Z,10.53
2019-06-15T09:14:00.362Z,10.53
2019-06-15T09:16:30.763Z,10.03
2019-06-15T09:19:01.649Z,10.93
2019-06-15T09:21:32.432Z,10.40
2019-06-15T09:24:03.169Z,15.83
2019-06-15T09:26:34.132Z,10.17
2019-06-15T09:29:11.127Z,9.97
2019-06-15T09:31:36.611Z,9.30
2019-06-15T09:34:18.390Z,8.20
2019-06-15T09:36:39.781Z,8.13
2019-06-15T09:39:10.673Z,8.17
2019-06-15T09:41:41.080Z,9.93
2019-06-15T09:44:11.465Z,14.30
2019-06-15T09:46:41.895Z,10.07
2019-06-15T09:49:12.246Z,13.13
2019-06-15T09:51:42.639Z,8.57
2019-06-15T09:54:12.976Z,7.43
2019-06-15T09:56:43.604Z,8.13
2019-06-15T09:59:25.704Z,6.57
2019-06-15T10:01:46.709Z,9.27
2019-06-15T10:04:17.357Z,7.10
2019-06-15T10:06:47.788Z,10.20
2019-06-15T10:09:18.533Z,6.90
2019-06-15T10:11:50.632Z,5.97
2019-06-15T10:14:21.026Z,6.90
2019-06-15T10:16:51.381Z,7.27
2019-06-15T10:19:22.157Z,8.53
2019-06-15T10:21:52.518Z,7.77
2019-06-15T10:24:23.221Z,7.40
2019-06-15T10:26:53.622Z,7.23
2019-06-15T10:29:24.247Z,8.37
2019-06-15T10:31:54.603Z,8.27
2019-06-15T10:34:30.893Z,8.37
2019-06-15T10:37:01.365Z,7.60
2019-06-15T10:39:31.708Z,7.37
2019-06-15T10:42:02.075Z,7.57
2019-06-15T10:44:32.390Z,7.37
2019-06-15T10:47:02.746Z,6.83
2019-06-15T10:49:33.090Z,7.10
2019-06-15T10:52:03.724Z,7.37
2019-06-15T10:54:34.030Z,7.03
2019-06-15T10:57:04.393Z,6.70
2019-06-15T10:59:34.723Z,6.60
2019-06-15T11:02:05.370Z,6.93
2019-06-15T11:04:35.740Z,6.17
2019-06-15T11:07:06.475Z,7.73
2019-06-15T11:09:37.483Z,5.57
2019-06-15T11:12:08.547Z,6.40
2019-06-15T11:14:39.399Z,5.10
2019-06-15T11:17:10.274Z,7.47
2019-06-15T11:19:40.896Z,5.67
2019-06-15T11:22:11.679Z,5.47
2019-06-15T11:24:42.315Z,5.60
2019-06-15T11:27:12.707Z,6.87
2019-06-15T11:29:43.086Z,8.90
2019-06-15T11:32:13.750Z,6.70
2019-06-15T11:34:44.174Z,7.77
2019-06-15T11:37:14.860Z,7.20
2019-06-15T11:39:45.209Z,6.90
2019-06-15T11:42:15.565Z,6.90
2019-06-15T11:44:45.962Z,7.60
2019-06-15T11:47:16.566Z,8.13
2019-06-15T11:49:46.944Z,8.10
2019-06-15T11:52:17.291Z,8.67
2019-06-15T11:54:48.529Z,9.93
2019-06-15T11:57:19.396Z,8.47
2019-06-15T11:59:49.883Z,8.07
2019-06-15T12:02:20.256Z,7.70
2019-06-15T12:04:58.378Z,9.80
2019-06-15T12:07:23.239Z,9.27
2019-06-15T12:09:53.919Z,9.90
2019-06-15T12:12:24.269Z,8.77
2019-06-15T12:14:54.944Z,8.83
2019-06-15T12:17:25.901Z,7.97
2019-06-15T12:19:56.228Z,7.70
2019-06-15T12:22:26.564Z,8.37
2019-06-15T12:24:57.202Z,7.53
2019-06-15T12:27:27.544Z,8.53
2019-06-15T12:29:57.906Z,9.33
2019-06-15T12:32:28.525Z,8.93
2019-06-15T12:34:59.139Z,6.90
2019-06-15T12:37:29.760Z,6.77
2019-06-15T12:40:00.398Z,9.13
2019-06-15T12:42:30.800Z,7.67
2019-06-15T12:45:01.191Z,7.23
2019-06-15T12:47:31.519Z,8.63
2019-06-15T12:50:01.875Z,7.27
2019-06-15T12:52:32.326Z,6.20
2019-06-15T12:55:02.670Z,6.00
2019-06-15T12:57:33.003Z,4.50
2019-06-15T13:00:03.391Z,4.30
2019-06-15T13:02:33.727Z,3.50
2019-06-15T13:05:04.507Z,2.20
2019-06-15T13:07:34.826Z,1.40
2019-06-15T13:10:05.567Z,2.87
2019-06-15T13:12:35.948Z,1.90
2019-06-15T13:15:08.201Z,3.67
2019-06-15T13:17:38.565Z,1.20
2019-06-15T13:20:09.725Z,0.93
2019-06-15T13:22:40.482Z,1.90
2019-06-15T13:25:10.845Z,0.70
2019-06-15T13:27:42.021Z,9.63
2019-06-15T13:30:20.632Z,0.87
2019-06-15T13:32:51.171Z,1.37
2019-06-15T13:35:21.556Z,0.87
2019-06-15T13:37:51.991Z,0.57
2019-06-15T13:40:22.600Z,2.00
2019-06-15T13:42:53.020Z,1.43
2019-06-15T13:45:23.835Z,0.40
2019-06-15T13:47:54.183Z,1.03
2019-06-15T13:50:24.574Z,7.40
2019-06-15T13:52:54.928Z,1.40
2019-06-15T13:55:25.285Z,0.43
2019-06-15T13:57:56.255Z,1.70
2019-06-15T14:00:26.591Z,2.30
2019-06-15T14:02:56.905Z,1.50
2019-06-15T14:05:27.319Z,1.73
2019-06-15T14:07:58.705Z,0.70
2019-06-15T14:10:29.445Z,0.40
2019-06-15T14:12:59.781Z,1.83
2019-06-15T14:15:30.186Z,0.70
2019-06-15T14:18:00.547Z,0.50
2019-06-15T14:20:30.860Z,2.20
2019-06-15T14:23:01.324Z,0.50
2019-06-15T14:25:31.635Z,0.93
2019-06-15T14:28:01.996Z,1.13
2019-06-15T14:30:33.074Z,0.80
2019-06-15T14:33:03.835Z,0.73
2019-06-15T14:35:34.565Z,3.53
2019-06-15T14:38:04.915Z,1.70
2019-06-15T14:40:35.262Z,0.70
2019-06-15T14:43:05.630Z,1.57
2019-06-15T14:45:35.978Z,1.13
2019-06-15T14:48:06.398Z,2.97
2019-06-15T14:50:37.108Z,0.87
2019-06-15T14:53:07.441Z,1.27
2019-06-15T14:55:38.070Z,1.17
2019-06-15T14:58:08.393Z,1.03
2019-06-15T15:00:38.767Z,0.67
2019-06-15T15:03:09.655Z,1.90
2019-06-15T15:05:40.133Z,1.40
2019-06-15T15:08:10.463Z,2.13
2019-06-15T15:10:41.146Z,2.23
2019-06-15T15:13:11.592Z,1.30
2019-06-15T15:15:42.350Z,1.50
2019-06-15T15:18:12.700Z,1.80
2019-06-15T15:20:43.071Z,1.60
2019-06-15T15:23:13.422Z,1.37
2019-06-15T15:25:44.119Z,2.23
2019-06-15T15:28:14.750Z,1.63
2019-06-15T15:30:45.100Z,2.73
2019-06-15T15:33:15.451Z,1.10
2019-06-15T15:35:46.631Z,1.40
2019-06-15T15:38:17.271Z,2.13
2019-06-15T15:40:47.906Z,2.30
2019-06-15T15:43:18.637Z,3.73
2019-06-15T15:45:49.020Z,2.00
2019-06-15T15:48:21.054Z,2.40
2019-06-15T15:50:51.888Z,1.30
2019-06-15T15:53:22.256Z,1.67
2019-06-15T15:55:52.579Z,3.00
2019-06-15T15:58:23.328Z,3.03
2019-06-15T16:00:53.696Z,2.10
2019-06-15T16:03:26.336Z,2.13
2019-06-15T16:05:56.597Z,1.67
2019-06-15T16:08:28.467Z,1.67
2019-06-15T16:10:59.023Z,2.97
2019-06-15T16:13:29.353Z,2.30
2019-06-15T16:15:59.694Z,1.87
2019-06-15T16:18:30.034Z,3.73
2019-06-15T16:21:00.402Z,1.67
2019-06-15T16:23:30.733Z,3.20
2019-06-15T16:26:01.418Z,3.20
2019-06-15T16:28:32.012Z,2.90
2019-06-15T16:31:12.199Z,1.47
2019-06-15T16:33:37.165Z,1.77
2019-06-15T16:36:06.466Z,2.27
2019-06-15T16:38:36.933Z,1.97
2019-06-15T16:41:07.295Z,7.93
2019-06-15T16:43:37.918Z,3.00
2019-06-15T16:46:08.257Z,2.50
2019-06-15T16:48:38.865Z,2.87
2019-06-15T16:51:09.299Z,2.33
2019-06-15T16:53:40.054Z,2.17
2019-06-15T16:56:10.363Z,2.70
2019-06-15T16:58:40.805Z,2.20
2019-06-15T17:01:11.123Z,2.43
2019-06-15T17:03:41.735Z,3.23
2019-06-15T17:06:12.387Z,2.07
2019-06-15T17:08:42.729Z,4.00
2019-06-15T17:11:13.123Z,2.40
2019-06-15T17:13:43.524Z,2.20
2019-06-15T17:16:16.591Z,3.03
2019-06-15T17:18:47.070Z,2.93
2019-06-15T17:21:17.862Z,2.13
2019-06-15T17:23:48.842Z,4.53
2019-06-15T17:26:19.167Z,4.93
2019-06-15T17:28:49.511Z,3.07
2019-06-15T17:31:19.873Z,2.20
2019-06-15T17:33:50.572Z,2.40
2019-06-15T17:36:20.940Z,3.13
2019-06-15T17:38:51.294Z,4.53
2019-06-15T17:41:21.985Z,2.73
2019-06-15T17:43:52.564Z,2.43
2019-06-15T17:46:22.887Z,2.30
2019-06-15T17:48:53.228Z,3.23
2019-06-15T17:51:23.848Z,4.20
2019-06-15T17:53:56.332Z,3.83
2019-06-15T17:56:27.182Z,4.03
2019-06-15T17:58:57.812Z,2.87
2019-06-15T18:01:28.422Z,4.80
2019-06-15T18:03:58.765Z,3.10
2019-06-15T18:06:29.512Z,4.00
2019-06-15T18:09:00.473Z,3.07
2019-06-15T18:11:30.767Z,2.70
2019-06-15T18:14:01.480Z,2.93
2019-06-15T18:16:32.369Z,3.00
2019-06-15T18:19:02.710Z,2.93
2019-06-15T18:21:33.090Z,2.33
2019-06-15T18:24:03.487Z,2.73
2019-06-15T18:26:36.380Z,2.33
2019-06-15T18:29:05.875Z,3.30
2019-06-15T18:31:36.493Z,2.63
2019-06-15T18:34:12.289Z,3.20
2019-06-15T18:36:38.986Z,2.70
2019-06-15T18:39:09.466Z,4.10
2019-06-15T18:41:39.780Z,2.43
2019-06-15T18:44:10.130Z,3.57
2019-06-15T18:46:40.726Z,2.47
2019-06-15T18:49:11.130Z,3.80
2019-06-15T18:51:41.528Z,3.70
2019-06-15T18:54:11.857Z,4.53
2019-06-15T18:56:42.245Z,2.60
2019-06-15T18:59:12.602Z,3.00
2019-06-15T19:01:42.958Z,2.80
2019-06-15T19:04:26.482Z,3.40
2019-06-15T19:06:46.724Z,2.50
2019-06-15T19:09:17.263Z,2.97
2019-06-15T19:11:47.609Z,2.40
2019-06-15T19:14:31.945Z,3.67
2019-06-15T19:17:02.254Z,3.43
2019-06-15T19:19:32.584Z,2.63
2019-06-15T19:22:02.981Z,2.67
2019-06-15T19:24:33.353Z,3.70
2019-06-15T19:27:03.999Z,5.10
2019-06-15T19:29:53.736Z,4.00
2019-06-15T19:32:26.323Z,4.77
2019-06-15T19:34:57.044Z,3.80
2019-06-15T19:37:27.971Z,4.23
2019-06-15T19:39:58.340Z,4.03
2019-06-15T19:42:28.682Z,4.27
2019-06-15T19:44:59.116Z,4.93
2019-06-15T19:47:29.519Z,5.30
2019-06-15T19:49:59.882Z,4.10
2019-06-15T19:52:30.594Z,5.53
2019-06-15T19:55:01.046Z,3.93
2019-06-15T19:57:31.729Z,3.17
2019-06-15T20:00:02.078Z,5.50
2019-06-15T20:02:32.760Z,4.90
2019-06-15T20:05:04.013Z,3.40
2019-06-15T20:07:36.694Z,4.10
2019-06-15T20:10:10.693Z,4.40
2019-06-15T20:12:40.893Z,4.90
2019-06-15T20:15:13.037Z,4.37
2019-06-15T20:17:46.008Z,4.40
2019-06-15T20:20:15.653Z,3.90
2019-06-15T20:22:46.772Z,4.53
2019-06-15T20:25:17.301Z,3.93
2019-06-15T20:27:49.826Z,3.83
2019-06-15T20:30:20.318Z,3.53
2019-06-15T20:32:50.645Z,4.33
2019-06-15T20:35:21.549Z,3.80
2019-06-15T20:37:52.267Z,3.60
2019-06-15T20:40:22.857Z,4.23
2019-06-15T20:42:53.525Z,3.50
2019-06-15T20:45:26.695Z,3.97
2019-06-15T20:47:56.488Z,4.03
2019-06-15T20:50:28.536Z,4.90
2019-06-15T20:52:58.994Z,4.37
2019-06-15T20:55:29.532Z,3.80
2019-06-15T20:58:00.135Z,5.27
2019-06-15T21:00:30.654Z,4.90
2019-06-15T21:03:01.022Z,5.27
2019-06-15T21:05:37.668Z,5.60
2019-06-15T21:08:26.696Z,5.70
2019-06-15T21:10:57.267Z,5.57
2019-06-15T21:13:27.930Z,4.77
2019-06-15T21:16:00.938Z,6.03
2019-06-15T21:18:33.952Z,5.13
2019-06-15T21:21:06.660Z,6.20
2019-06-15T21:23:37.258Z,5.27
2019-06-15T21:26:07.880Z,5.20
2019-06-15T21:28:38.463Z,5.20
2019-06-15T21:31:09.598Z,5.20
2019-06-15T21:33:39.980Z,6.20
2019-06-15T21:36:10.363Z,6.30
2019-06-15T21:38:41.049Z,5.63
2019-06-15T21:41:11.389Z,5.73
2019-06-15T21:43:41.731Z,5.43
2019-06-15T21:46:12.072Z,5.90
2019-06-15T21:48:42.379Z,5.87
2019-06-15T21:51:12.923Z,7.87
2019-06-15T21:53:43.238Z,6.33
2019-06-15T21:56:16.001Z,6.07
2019-06-15T21:58:46.128Z,6.53
2019-06-15T22:01:37.453Z,6.73
2019-06-15T22:04:07.800Z,7.47
2019-06-15T22:06:38.175Z,5.87
2019-06-15T22:09:13.051Z,5.97
2019-06-15T22:11:46.875Z,6.10
2019-06-15T22:14:17.745Z,5.73
2019-06-15T22:16:48.083Z,6.67
2019-06-15T22:19:21.737Z,10.27
2019-06-15T22:21:52.525Z,8.97
2019-06-15T22:24:23.028Z,6.60
2019-06-15T22:26:53.362Z,9.60
2019-06-15T22:29:27.213Z,5.90
2019-06-15T22:31:56.407Z,5.97
2019-06-15T22:34:26.725Z,8.17
2019-06-15T22:36:57.459Z,7.00
2019-06-15T22:39:28.540Z,6.97
2019-06-15T22:42:02.199Z,8.13
2019-06-15T22:44:32.831Z,8.50
2019-06-15T22:47:03.544Z,9.67
2019-06-15T22:49:35.966Z,7.50
2019-06-15T22:52:06.708Z,8.63
2019-06-15T22:54:37.750Z,17.27
2019-06-15T22:57:08.262Z,8.73
2019-06-15T22:59:38.566Z,8.70
2019-06-15T23:02:08.931Z,9.07
2019-06-15T23:04:39.314Z,9.00
2019-06-15T23:07:09.675Z,8.53
2019-06-15T23:09:40.113Z,7.83
2019-06-15T23:12:10.548Z,8.17
2019-06-15T23:14:40.850Z,7.33
2019-06-15T23:17:11.380Z,8.57
2019-06-15T23:19:42.495Z,7.03
2019-06-15T23:22:12.835Z,7.03
2019-06-15T23:24:43.174Z,8.50
2019-06-15T23:27:16.427Z,9.80
2019-06-15T23:29:46.402Z,7.20
2019-06-15T23:32:17.101Z,7.63
2019-06-15T23:34:47.634Z,7.33
2019-06-15T23:37:19.629Z,10.30
2019-06-15T23:40:08.290Z,8.67
2019-06-15T23:42:39.522Z,7.93
2019-06-15T23:45:10.689Z,6.70
2019-06-15T23:47:41.324Z,7.17
2019-06-15T23:50:12.082Z,7.90
2019-06-15T23:52:42.969Z,7.90
2019-06-15T23:55:13.644Z,6.33
2019-06-15T23:57:51.439Z,7.40
